createdAt,value
2018-03-04T00:02:05.352Z,5.81
2018-03-04T00:04:32.747Z,5.87
2018-03-04T00:07:00.140Z,6.00
2018-03-04T00:09:27.547Z,5.80
2018-03-04T00:11:54.941Z,5.90
2018-03-04T00:14:23.031Z,5.73
2018-03-04T00:16:50.742Z,5.87
2018-03-04T00:19:18.145Z,5.83
2018-03-04T00:21:45.569Z,5.90
2018-03-04T00:24:12.953Z,5.91
2018-03-04T00:26:40.345Z,5.84
2018-03-04T00:29:07.783Z,5.76
2018-03-04T00:31:35.213Z,5.65
2018-03-04T00:34:02.907Z,5.84
2018-03-04T00:36:30.341Z,5.64
2018-03-04T00:38:57.728Z,5.90
2018-03-04T00:41:25.116Z,5.71
2018-03-04T00:43:53.352Z,5.70
2018-03-04T00:46:20.744Z,5.73
2018-03-04T00:48:48.170Z,5.97
2018-03-04T00:51:15.576Z,5.64
2018-03-04T00:53:42.992Z,5.51
2018-03-04T00:56:10.388Z,5.75
2018-03-04T00:58:37.802Z,5.84
2018-03-04T01:01:05.205Z,5.67
2018-03-04T01:03:32.770Z,6.00
2018-03-04T01:06:00.204Z,5.77
2018-03-04T01:08:27.594Z,6.17
2018-03-04T01:10:55.139Z,6.49
2018-03-04T01:13:23.380Z,6.06
2018-03-04T01:15:51.693Z,6.19
2018-03-04T01:18:19.280Z,6.45
2018-03-04T01:20:46.663Z,6.35
2018-03-04T01:23:14.062Z,6.27
2018-03-04T01:25:41.520Z,6.50
2018-03-04T01:28:09.174Z,6.34
2018-03-04T01:30:36.580Z,6.15
2018-03-04T01:33:04.898Z,6.23
2018-03-04T01:35:32.330Z,6.00
2018-03-04T01:37:59.715Z,6.17
2018-03-04T01:40:27.108Z,6.18
2018-03-04T01:42:56.556Z,6.13
2018-03-04T01:45:23.947Z,6.12
2018-03-04T01:47:51.351Z,6.24
2018-03-04T01:50:18.806Z,5.97
2018-03-04T01:52:46.215Z,5.43
2018-03-04T01:55:13.599Z,5.17
2018-03-04T01:57:41.029Z,5.35
2018-03-04T02:00:08.457Z,5.52
2018-03-04T02:02:35.918Z,5.87
2018-03-04T02:05:03.310Z,5.78
2018-03-04T02:07:30.736Z,5.86
2018-03-04T02:09:58.150Z,5.76
2018-03-04T02:12:25.550Z,5.84
2018-03-04T02:14:53.622Z,5.77
2018-03-04T02:17:21.038Z,5.62
2018-03-04T02:19:48.439Z,5.97
2018-03-04T02:22:15.935Z,6.07
2018-03-04T02:24:43.312Z,5.68
2018-03-04T02:27:10.950Z,5.47
2018-03-04T02:29:38.362Z,5.00
2018-03-04T02:32:06.019Z,5.84
2018-03-04T02:34:33.532Z,5.83
2018-03-04T02:37:01.000Z,5.81
2018-03-04T02:39:28.401Z,5.88
2018-03-04T02:41:55.822Z,5.69
2018-03-04T02:44:23.726Z,5.63
2018-03-04T02:46:51.117Z,5.72
2018-03-04T02:49:18.528Z,5.93
2018-03-04T02:51:46.018Z,5.87
2018-03-04T02:54:13.494Z,5.97
2018-03-04T02:56:40.968Z,5.94
2018-03-04T02:59:08.417Z,5.64
2018-03-04T03:01:35.797Z,5.31
2018-03-04T03:04:03.181Z,5.37
2018-03-04T03:06:30.572Z,5.77
2018-03-04T03:08:58.012Z,5.39
2018-03-04T03:11:25.416Z,5.42
2018-03-04T03:13:52.796Z,5.65
2018-03-04T03:16:20.287Z,5.75
2018-03-04T03:18:47.698Z,5.99
2018-03-04T03:21:15.092Z,5.95
2018-03-04T03:23:42.527Z,5.74
2018-03-04T03:26:09.929Z,5.80
2018-03-04T03:28:37.389Z,5.98
2018-03-04T03:31:04.811Z,6.27
2018-03-04T03:33:32.193Z,6.40
2018-03-04T03:35:59.624Z,5.93
2018-03-04T03:38:27.037Z,5.97
2018-03-04T03:40:54.450Z,6.06
2018-03-04T03:43:21.856Z,6.04
2018-03-04T03:45:49.233Z,6.06
2018-03-04T03:48:16.628Z,5.88
2018-03-04T03:50:44.021Z,6.19
2018-03-04T03:53:11.492Z,5.88
2018-03-04T03:55:38.871Z,6.24
2018-03-04T03:58:06.253Z,6.07
2018-03-04T04:00:33.684Z,5.93
2018-03-04T04:03:01.107Z,5.93
2018-03-04T04:05:28.498Z,5.75
2018-03-04T04:07:55.918Z,5.75
2018-03-04T04:10:24.246Z,5.87
2018-03-04T04:12:51.641Z,6.21
2018-03-04T04:15:19.102Z,5.97
2018-03-04T04:17:46.501Z,5.80
2018-03-04T04:20:13.883Z,6.10
2018-03-04T04:22:41.270Z,5.97
2018-03-04T04:25:08.720Z,5.87
2018-03-04T04:27:36.120Z,6.02
2018-03-04T04:30:03.603Z,6.06
2018-03-04T04:32:30.985Z,5.79
2018-03-04T04:34:58.395Z,5.81
2018-03-04T04:37:25.843Z,5.70
2018-03-04T04:39:54.416Z,5.76
2018-03-04T04:42:21.795Z,6.03
2018-03-04T04:44:49.196Z,5.91
2018-03-04T04:47:16.595Z,5.86
2018-03-04T04:49:43.979Z,5.95
2018-03-04T04:52:11.427Z,6.13
2018-03-04T04:54:38.843Z,6.29
2018-03-04T04:57:06.418Z,5.99
2018-03-04T04:59:33.977Z,6.24
2018-03-04T05:02:01.377Z,6.24
2018-03-04T05:04:28.788Z,6.15
2018-03-04T05:06:56.216Z,5.82
2018-03-04T05:09:24.663Z,5.93
2018-03-04T05:11:52.253Z,5.81
2018-03-04T05:14:19.656Z,5.80
2018-03-04T05:16:47.064Z,5.77
2018-03-04T05:19:14.630Z,6.02
2018-03-04T05:21:42.217Z,5.79
2018-03-04T05:24:09.590Z,5.87
2018-03-04T05:26:36.993Z,5.88
2018-03-04T05:29:04.389Z,5.83
2018-03-04T05:31:31.954Z,5.87
2018-03-04T05:33:59.369Z,5.86
2018-03-04T05:36:26.756Z,5.75
2018-03-04T05:38:54.561Z,6.01
2018-03-04T05:41:21.956Z,5.94
2018-03-04T05:43:49.567Z,5.74
2018-03-04T05:46:17.005Z,5.80
2018-03-04T05:48:44.414Z,5.66
2018-03-04T05:51:11.793Z,5.54
2018-03-04T05:53:39.281Z,5.84
2018-03-04T05:56:06.835Z,5.91
2018-03-04T05:58:34.250Z,6.24
2018-03-04T06:01:01.773Z,6.41
2018-03-04T06:03:29.164Z,6.49
2018-03-04T06:05:56.592Z,6.48
2018-03-04T06:08:24.849Z,6.45
2018-03-04T06:10:52.270Z,6.06
2018-03-04T06:13:19.665Z,5.99
2018-03-04T06:15:47.928Z,6.16
2018-03-04T06:18:15.338Z,6.15
2018-03-04T06:20:42.822Z,6.29
2018-03-04T06:23:10.221Z,6.01
2018-03-04T06:25:37.631Z,5.97
2018-03-04T06:28:05.036Z,5.71
2018-03-04T06:30:32.425Z,5.99
2018-03-04T06:32:59.830Z,5.84
2018-03-04T06:35:27.235Z,6.34
2018-03-04T06:37:55.060Z,5.99
2018-03-04T06:40:22.458Z,6.12
2018-03-04T06:42:49.916Z,5.98
2018-03-04T06:45:17.373Z,5.99
2018-03-04T06:47:44.779Z,6.01
2018-03-04T06:50:12.251Z,6.09
2018-03-04T06:52:39.982Z,6.13
2018-03-04T06:55:07.449Z,6.34
2018-03-04T06:57:34.951Z,6.37
2018-03-04T07:00:02.335Z,6.24
2018-03-04T07:02:29.752Z,6.17
2018-03-04T07:04:57.135Z,6.33
2018-03-04T07:07:24.863Z,6.25
2018-03-04T07:09:52.248Z,6.58
2018-03-04T07:12:19.646Z,6.28
2018-03-04T07:14:47.062Z,6.15
2018-03-04T07:17:14.450Z,6.31
2018-03-04T07:19:42.579Z,6.55
2018-03-04T07:22:09.969Z,6.53
2018-03-04T07:24:37.370Z,6.52
2018-03-04T07:27:04.765Z,6.65
2018-03-04T07:29:32.211Z,6.81
2018-03-04T07:31:59.620Z,6.30
2018-03-04T07:34:27.176Z,6.81
2018-03-04T07:36:55.155Z,6.92
2018-03-04T07:39:22.606Z,6.76
2018-03-04T07:41:49.999Z,6.67
2018-03-04T07:44:17.371Z,6.93
2018-03-04T07:46:45.769Z,6.99
2018-03-04T07:49:13.153Z,6.92
2018-03-04T07:51:40.562Z,7.09
2018-03-04T07:54:07.935Z,7.16
2018-03-04T07:56:35.431Z,6.94
2018-03-04T07:59:02.819Z,7.19
2018-03-04T08:01:30.228Z,7.21
2018-03-04T08:03:58.038Z,7.43
2018-03-04T08:06:25.432Z,7.28
2018-03-04T08:08:52.954Z,7.63
2018-03-04T08:11:20.388Z,7.51
2018-03-04T08:13:48.180Z,7.69
2018-03-04T08:16:15.562Z,7.76
2018-03-04T08:18:42.960Z,7.93
2018-03-04T08:21:10.394Z,7.85
2018-03-04T08:23:37.806Z,7.87
2018-03-04T08:26:16.821Z,7.98
2018-03-04T08:28:44.271Z,7.81
2018-03-04T08:31:11.647Z,7.83
2018-03-04T08:33:39.092Z,7.84
2018-03-04T08:36:06.629Z,7.91
2018-03-04T08:38:34.429Z,8.04
2018-03-04T08:41:01.903Z,8.13
2018-03-04T08:43:29.389Z,8.17
2018-03-04T08:45:56.830Z,7.88
2018-03-04T08:48:24.250Z,8.22
2018-03-04T08:50:51.653Z,8.44
2018-03-04T08:53:19.058Z,8.25
2018-03-04T08:55:46.437Z,8.17
2018-03-04T08:58:14.051Z,8.41
2018-03-04T09:00:41.450Z,8.52
2018-03-04T09:03:08.828Z,8.83
2018-03-04T09:05:36.262Z,8.66
2018-03-04T09:08:03.707Z,8.46
2018-03-04T09:10:31.117Z,8.70
2018-03-04T09:12:58.492Z,8.58
2018-03-04T09:15:25.937Z,8.47
2018-03-04T09:17:54.310Z,8.74
2018-03-04T09:20:21.715Z,9.06
2018-03-04T09:22:49.128Z,9.26
2018-03-04T09:25:16.709Z,9.51
2018-03-04T09:27:44.152Z,9.58
2018-03-04T09:30:11.572Z,9.64
2018-03-04T09:32:38.986Z,9.38
2018-03-04T09:35:06.673Z,9.51
2018-03-04T09:37:34.055Z,9.52
2018-03-04T09:40:01.585Z,9.55
2018-03-04T09:42:28.963Z,9.76
2018-03-04T09:44:56.409Z,9.93
2018-03-04T09:47:23.809Z,9.84
2018-03-04T09:49:51.285Z,10.02
2018-03-04T09:52:18.736Z,10.35
2018-03-04T09:54:46.263Z,10.48
2018-03-04T09:57:13.658Z,10.01
2018-03-04T09:59:41.062Z,10.39
2018-03-04T10:02:08.489Z,10.63
2018-03-04T10:04:35.885Z,10.44
2018-03-04T10:07:03.310Z,10.69
2018-03-04T10:09:30.699Z,10.73
2018-03-04T10:11:58.092Z,10.86
2018-03-04T10:14:25.789Z,10.90
2018-03-04T10:16:53.181Z,11.16
2018-03-04T10:19:20.864Z,11.14
2018-03-04T10:21:48.278Z,11.06
2018-03-04T10:24:15.674Z,11.25
2018-03-04T10:26:43.123Z,11.39
2018-03-04T10:29:10.515Z,11.58
2018-03-04T10:31:37.933Z,11.80
2018-03-04T10:34:06.043Z,11.98
2018-03-04T10:36:33.428Z,12.06
2018-03-04T10:39:01.204Z,11.98
2018-03-04T10:41:28.610Z,12.15
2018-03-04T10:43:56.120Z,12.22
2018-03-04T10:46:23.657Z,12.34
2018-03-04T10:48:51.051Z,12.55
2018-03-04T10:51:18.449Z,12.66
2018-03-04T10:53:45.837Z,12.78
2018-03-04T10:56:13.349Z,12.83
2018-03-04T10:58:40.779Z,12.95
2018-03-04T11:01:10.034Z,13.01
2018-03-04T11:03:37.442Z,13.12
2018-03-04T11:06:05.006Z,13.27
2018-03-04T11:08:32.970Z,13.33
2018-03-04T11:11:00.390Z,13.49
2018-03-04T11:13:27.776Z,13.36
2018-03-04T11:15:56.048Z,13.39
2018-03-04T11:18:23.553Z,13.23
2018-03-04T11:20:50.981Z,13.46
2018-03-04T11:23:18.677Z,13.58
2018-03-04T11:25:46.101Z,13.82
2018-03-04T11:28:13.637Z,13.76
2018-03-04T11:30:41.014Z,14.05
2018-03-04T11:33:08.444Z,14.03
2018-03-04T11:35:36.244Z,14.28
2018-03-04T11:38:03.666Z,14.37
2018-03-04T11:40:31.073Z,14.68
2018-03-04T11:42:58.485Z,14.87
2018-03-04T11:45:26.208Z,15.01
2018-03-04T11:47:53.693Z,15.20
2018-03-04T11:50:21.105Z,15.23
2018-03-04T11:52:48.542Z,15.19
2018-03-04T11:55:15.964Z,15.48
2018-03-04T11:57:44.393Z,15.85
2018-03-04T12:00:11.934Z,16.00
2018-03-04T12:02:41.002Z,16.33
2018-03-04T12:05:08.561Z,16.59
2018-03-04T12:07:36.149Z,16.54
2018-03-04T12:10:03.762Z,16.74
2018-03-04T12:12:31.169Z,17.21
2018-03-04T12:14:58.619Z,17.58
2018-03-04T12:17:27.211Z,17.97
2018-03-04T12:19:54.639Z,18.30
2018-03-04T12:22:22.030Z,18.14
2018-03-04T12:24:49.659Z,18.46
2018-03-04T12:27:17.252Z,18.36
2018-03-04T12:29:44.876Z,18.31
2018-03-04T12:32:12.330Z,18.68
2018-03-04T12:34:39.739Z,19.11
2018-03-04T12:37:07.129Z,19.16
2018-03-04T12:39:34.619Z,19.53
2018-03-04T12:42:02.011Z,19.67
2018-03-04T12:44:29.510Z,19.68
2018-03-04T12:46:57.005Z,20.06
2018-03-04T12:49:25.080Z,20.25
2018-03-04T12:51:52.480Z,20.66
2018-03-04T12:54:19.903Z,20.71
2018-03-04T12:56:47.283Z,20.76
2018-03-04T12:59:14.686Z,21.49
2018-03-04T13:01:42.085Z,21.89
2018-03-04T13:04:09.487Z,21.63
2018-03-04T13:06:37.182Z,21.82
2018-03-04T13:09:08.879Z,22.03
2018-03-04T13:11:36.287Z,22.26
2018-03-04T13:14:03.740Z,22.19
2018-03-04T13:16:31.140Z,22.41
2018-03-04T13:18:58.679Z,22.95
2018-03-04T13:21:26.552Z,23.39
2018-03-04T13:23:53.960Z,22.39
2018-03-04T13:26:21.346Z,21.94
2018-03-04T13:28:48.897Z,22.58
2018-03-04T13:31:16.264Z,21.90
2018-03-04T13:33:43.707Z,20.58
2018-03-04T13:36:11.133Z,19.95
2018-03-04T13:38:38.612Z,20.30
2018-03-04T13:41:07.109Z,20.33
2018-03-04T13:43:34.614Z,20.12
2018-03-04T13:46:02.014Z,19.23
2018-03-04T13:48:29.433Z,19.53
2018-03-04T13:50:56.832Z,19.58
2018-03-04T13:53:24.232Z,19.90
2018-03-04T13:55:51.633Z,20.22
2018-03-04T13:58:19.037Z,20.22
2018-03-04T14:00:46.534Z,20.21
2018-03-04T14:03:13.990Z,20.20
2018-03-04T14:05:41.425Z,20.62
2018-03-04T14:08:12.056Z,21.87
2018-03-04T14:10:39.583Z,22.45
2018-03-04T14:13:07.014Z,22.81
2018-03-04T14:15:34.661Z,22.58
2018-03-04T14:18:02.163Z,22.54
2018-03-04T14:20:29.586Z,22.31
2018-03-04T14:22:57.342Z,22.67
2018-03-04T14:25:25.052Z,22.97
2018-03-04T14:27:52.500Z,22.89
2018-03-04T14:30:19.930Z,23.41
2018-03-04T14:32:47.904Z,23.59
2018-03-04T14:35:15.338Z,23.97
2018-03-04T14:37:42.741Z,23.25
2018-03-04T14:40:17.037Z,22.97
2018-03-04T14:42:51.843Z,22.16
2018-03-04T14:45:19.504Z,21.17
2018-03-04T14:47:46.969Z,20.78
2018-03-04T14:50:14.360Z,21.17
2018-03-04T14:52:48.129Z,20.30
2018-03-04T14:55:15.546Z,19.49
2018-03-04T14:57:42.919Z,18.87
2018-03-04T15:00:10.324Z,18.18
2018-03-04T15:02:37.773Z,18.32
2018-03-04T15:05:05.216Z,18.78
2018-03-04T15:07:32.602Z,18.88
2018-03-04T15:10:00.117Z,18.34
2018-03-04T15:12:28.297Z,18.23
2018-03-04T15:14:55.738Z,17.94
2018-03-04T15:17:23.143Z,17.77
2018-03-04T15:19:50.549Z,18.11
2018-03-04T15:22:17.965Z,18.19
2018-03-04T15:24:45.421Z,18.10
2018-03-04T15:27:12.881Z,18.08
2018-03-04T15:29:40.522Z,17.75
2018-03-04T15:32:07.980Z,17.54
2018-03-04T15:34:35.614Z,17.32
2018-03-04T15:37:04.509Z,17.15
2018-03-04T15:39:31.952Z,17.33
2018-03-04T15:41:59.332Z,16.92
2018-03-04T15:44:28.597Z,16.60
2018-03-04T15:46:56.103Z,16.53
2018-03-04T15:49:23.538Z,16.34
2018-03-04T15:51:50.983Z,16.08
2018-03-04T15:54:18.381Z,16.03
2018-03-04T15:56:45.816Z,15.84
2018-03-04T15:59:13.197Z,15.66
2018-03-04T16:01:40.588Z,15.73
2018-03-04T16:04:07.993Z,15.54
2018-03-04T16:06:35.604Z,15.50
2018-03-04T16:09:03.005Z,15.26
2018-03-04T16:11:30.400Z,15.20
2018-03-04T16:13:57.812Z,15.08
2018-03-04T16:16:26.047Z,15.14
2018-03-04T16:18:53.656Z,15.08
2018-03-04T16:21:32.914Z,15.11
2018-03-04T16:24:09.549Z,15.00
2018-03-04T16:26:38.762Z,14.77
2018-03-04T16:29:08.267Z,14.92
2018-03-04T16:31:35.964Z,14.77
2018-03-04T16:34:03.357Z,14.62
2018-03-04T16:36:30.765Z,14.68
2018-03-04T16:38:58.156Z,14.58
2018-03-04T16:41:25.679Z,14.61
2018-03-04T16:43:53.342Z,14.63
2018-03-04T16:46:20.837Z,14.52
2018-03-04T16:48:48.255Z,14.39
2018-03-04T16:51:15.653Z,14.32
2018-03-04T16:53:43.229Z,14.33
2018-03-04T16:56:10.777Z,14.19
2018-03-04T16:58:38.162Z,14.16
2018-03-04T17:01:05.597Z,13.94
2018-03-04T17:03:32.997Z,14.08
2018-03-04T17:06:00.400Z,13.82
2018-03-04T17:08:28.008Z,13.96
2018-03-04T17:10:56.324Z,13.70
2018-03-04T17:13:23.714Z,13.77
2018-03-04T17:15:51.191Z,13.74
2018-03-04T17:18:18.689Z,13.54
2018-03-04T17:20:46.098Z,13.48
2018-03-04T17:23:19.134Z,13.53
2018-03-04T17:25:46.913Z,13.36
2018-03-04T17:28:15.933Z,13.32
2018-03-04T17:30:50.426Z,13.41
2018-03-04T17:33:19.145Z,13.33
2018-03-04T17:35:46.643Z,13.28
2018-03-04T17:38:14.252Z,13.22
2018-03-04T17:40:41.749Z,13.16
2018-03-04T17:43:09.144Z,13.32
2018-03-04T17:45:36.593Z,13.19
2018-03-04T17:48:04.179Z,13.22
2018-03-04T17:50:31.596Z,13.28
2018-03-04T17:52:59.259Z,13.18
2018-03-04T17:55:27.748Z,13.17
2018-03-04T17:57:55.159Z,13.00
2018-03-04T18:00:22.712Z,13.10
2018-03-04T18:02:50.147Z,13.08
2018-03-04T18:05:17.572Z,13.17
2018-03-04T18:07:44.983Z,13.01
2018-03-04T18:10:12.388Z,12.98
2018-03-04T18:12:40.794Z,13.09
2018-03-04T18:15:08.195Z,12.96
2018-03-04T18:17:35.593Z,13.01
2018-03-04T18:20:03.365Z,12.90
2018-03-04T18:22:30.743Z,12.87
2018-03-04T18:24:58.209Z,12.91
2018-03-04T18:27:26.040Z,13.02
2018-03-04T18:29:53.936Z,12.99
2018-03-04T18:32:21.332Z,12.90
2018-03-04T18:34:48.873Z,12.79
2018-03-04T18:37:16.304Z,12.75
2018-03-04T18:39:43.685Z,12.67
2018-03-04T18:42:11.159Z,12.67
2018-03-04T18:44:39.872Z,12.79
2018-03-04T18:47:07.278Z,12.79
2018-03-04T18:49:34.687Z,12.69
2018-03-04T18:52:02.098Z,12.57
2018-03-04T18:54:29.623Z,12.93
2018-03-04T18:56:58.011Z,12.71
2018-03-04T18:59:25.404Z,12.74
2018-03-04T19:01:52.837Z,12.58
2018-03-04T19:04:20.285Z,12.64
2018-03-04T19:06:47.679Z,12.55
2018-03-04T19:09:15.263Z,12.57
2018-03-04T19:11:42.653Z,12.66
2018-03-04T19:14:10.056Z,12.27
2018-03-04T19:16:37.448Z,12.56
2018-03-04T19:19:04.848Z,12.62
2018-03-04T19:21:39.470Z,12.65
2018-03-04T19:24:06.914Z,12.59
2018-03-04T19:26:35.332Z,12.66
2018-03-04T19:29:14.431Z,12.61
2018-03-04T19:31:41.889Z,12.46
2018-03-04T19:34:09.359Z,12.50
2018-03-04T19:36:36.815Z,12.48
2018-03-04T19:39:04.282Z,12.47
2018-03-04T19:41:31.715Z,12.45
2018-03-04T19:43:59.103Z,12.61
2018-03-04T19:46:26.590Z,12.53
2018-03-04T19:48:54.370Z,12.37
2018-03-04T19:51:21.758Z,12.34
2018-03-04T19:53:49.193Z,12.34
2018-03-04T19:56:16.572Z,12.24
2018-03-04T19:58:44.030Z,12.37
2018-03-04T20:01:11.572Z,12.28
2018-03-04T20:03:38.997Z,12.32
2018-03-04T20:06:06.483Z,12.39
2018-03-04T20:08:33.938Z,12.30
2018-03-04T20:11:01.437Z,12.44
2018-03-04T20:13:28.909Z,12.53
2018-03-04T20:15:56.968Z,12.38
2018-03-04T20:18:24.383Z,12.48
2018-03-04T20:20:51.884Z,12.30
2018-03-04T20:23:19.287Z,12.51
2018-03-04T20:25:46.756Z,12.40
2018-03-04T20:28:14.179Z,12.45
2018-03-04T20:30:44.470Z,12.52
2018-03-04T20:33:12.014Z,12.46
2018-03-04T20:35:39.519Z,12.52
2018-03-04T20:38:06.908Z,12.55
2018-03-04T20:40:34.296Z,12.62
2018-03-04T20:43:02.120Z,12.61
2018-03-04T20:45:29.504Z,12.38
2018-03-04T20:47:56.913Z,12.54
2018-03-04T20:50:24.450Z,12.53
2018-03-04T20:52:51.857Z,12.47
2018-03-04T20:55:19.312Z,12.25
2018-03-04T20:57:47.000Z,12.27
2018-03-04T21:00:14.461Z,12.20
2018-03-04T21:02:41.876Z,12.30
2018-03-04T21:05:09.283Z,12.27
2018-03-04T21:07:36.707Z,12.08
2018-03-04T21:10:04.152Z,12.27
2018-03-04T21:12:31.709Z,12.35
2018-03-04T21:14:59.172Z,12.11
2018-03-04T21:17:26.623Z,12.41
2018-03-04T21:19:54.065Z,12.40
2018-03-04T21:22:21.469Z,12.34
2018-03-04T21:24:48.891Z,12.22
2018-03-04T21:27:16.289Z,12.14
2018-03-04T21:29:43.808Z,12.24
2018-03-04T21:32:13.330Z,12.05
2018-03-04T21:34:40.744Z,12.08
2018-03-04T21:37:08.293Z,12.15
2018-03-04T21:39:35.858Z,12.28
2018-03-04T21:42:03.236Z,12.11
2018-03-04T21:44:30.636Z,11.95
2018-03-04T21:46:58.776Z,11.76
2018-03-04T21:49:26.170Z,11.79
2018-03-04T21:51:53.636Z,11.96
2018-03-04T21:54:21.015Z,11.97
2018-03-04T21:56:49.336Z,11.93
2018-03-04T21:59:16.720Z,12.05
2018-03-04T22:01:44.157Z,11.90
2018-03-04T22:04:11.543Z,11.54
2018-03-04T22:06:39.522Z,11.18
2018-03-04T22:09:06.963Z,11.64
2018-03-04T22:11:34.385Z,11.56
2018-03-04T22:14:01.904Z,11.56
2018-03-04T22:16:29.294Z,11.80
2018-03-04T22:18:56.898Z,11.86
2018-03-04T22:21:24.276Z,11.85
2018-03-04T22:23:51.668Z,11.87
2018-03-04T22:26:19.070Z,11.92
2018-03-04T22:28:46.474Z,11.71
2018-03-04T22:31:13.933Z,11.87
2018-03-04T22:33:41.345Z,11.50
2018-03-04T22:36:08.730Z,11.16
2018-03-04T22:38:36.120Z,11.00
2018-03-04T22:41:03.726Z,11.11
2018-03-04T22:43:31.173Z,11.00
2018-03-04T22:46:00.384Z,11.12
2018-03-04T22:48:27.902Z,11.02
2018-03-04T22:50:56.538Z,11.15
2018-03-04T22:53:23.980Z,11.34
2018-03-04T22:55:51.383Z,11.19
2018-03-04T22:58:18.772Z,10.79
2018-03-04T23:00:46.193Z,10.47
2018-03-04T23:03:13.607Z,10.47
2018-03-04T23:05:41.090Z,10.37
2018-03-04T23:08:08.498Z,10.71
2018-03-04T23:10:35.906Z,10.83
2018-03-04T23:13:03.838Z,10.86
2018-03-04T23:15:32.049Z,10.65
2018-03-04T23:17:59.522Z,10.47
2018-03-04T23:20:29.495Z,10.63
2018-03-04T23:22:57.152Z,10.29
2018-03-04T23:25:24.730Z,10.25
2018-03-04T23:27:53.353Z,10.71
2018-03-04T23:30:21.196Z,10.44
2018-03-04T23:32:48.680Z,10.46
2018-03-04T23:35:18.215Z,10.16
2018-03-04T23:37:45.586Z,10.38
2018-03-04T23:40:12.980Z,10.36
2018-03-04T23:42:40.387Z,10.02
2018-03-04T23:45:07.965Z,10.20
2018-03-04T23:47:35.336Z,10.31
2018-03-04T23:50:02.740Z,10.33
2018-03-04T23:52:30.145Z,10.12
2018-03-04T23:54:57.534Z,10.15
2018-03-04T23:57:24.957Z,10.11
2018-03-04T23:59:52.430Z,10.13
